sensor_id;sensor_type;location;lat;lon;timestamp;temperature;humidity
19892;DHT22;10108;50.142;8.724;2022-07-23T00:02:24;22.00;99.90
19892;DHT22;10108;50.142;8.724;2022-07-23T00:04:50;22.00;99.90
19892;DHT22;10108;50.142;8.724;2022-07-23T00:07:16;22.00;99.90
19892;DHT22;10108;50.142;8.724;2022-07-23T00:09:42;22.00;99.90
19892;DHT22;10108;50.142;8.724;2022-07-23T00:12:09;22.00;99.90
19892;DHT22;10108;50.142;8.724;2022-07-23T00:14:35;21.90;99.90
19892;DHT22;10108;50.142;8.724;2022-07-23T00:17:01;21.90;99.90
19892;DHT22;10108;50.142;8.724;2022-07-23T00:19:27;21.80;99.90
19892;DHT22;10108;50.142;8.724;2022-07-23T00:21:55;21.80;99.90
19892;DHT22;10108;50.142;8.724;2022-07-23T00:24:21;21.80;99.90
19892;DHT22;10108;50.142;8.724;2022-07-23T00:26:47;21.70;99.90
19892;DHT22;10108;50.142;8.724;2022-07-23T00:29:13;21.70;99.90
19892;DHT22;10108;50.142;8.724;2022-07-23T00:31:39;21.70;99.90
19892;DHT22;10108;50.142;8.724;2022-07-23T00:34:05;21.60;99.90
19892;DHT22;10108;50.142;8.724;2022-07-23T00:36:31;21.60;99.90
19892;DHT22;10108;50.142;8.724;2022-07-23T00:38:58;21.60;99.90
19892;DHT22;10108;50.142;8.724;2022-07-23T00:41:24;21.60;99.90
19892;DHT22;10108;50.142;8.724;2022-07-23T00:43:50;21.70;99.90
19892;DHT22;10108;50.142;8.724;2022-07-23T00:46:21;21.60;99.90
19892;DHT22;10108;50.142;8.724;2022-07-23T00:48:47;21.70;99.90
19892;DHT22;10108;50.142;8.724;2022-07-23T00:51:15;21.70;99.90
19892;DHT22;10108;50.142;8.724;2022-07-23T00:53:42;21.70;99.90
19892;DHT22;10108;50.142;8.724;2022-07-23T00:56:08;21.70;99.90
19892;DHT22;10108;50.142;8.724;2022-07-23T00:58:36;21.70;99.90
19892;DHT22;10108;50.142;8.724;2022-07-23T01:01:02;21.60;99.90
19892;DHT22;10108;50.142;8.724;2022-07-23T01:03:29;21.60;99.90
19892;DHT22;10108;50.142;8.724;2022-07-23T01:05:55;21.60;99.90
19892;DHT22;10108;50.142;8.724;2022-07-23T01:08:21;21.50;99.90
19892;DHT22;10108;50.142;8.724;2022-07-23T01:10:48;21.40;99.90
19892;DHT22;10108;50.142;8.724;2022-07-23T01:13:14;21.50;99.90
19892;DHT22;10108;50.142;8.724;2022-07-23T01:15:41;21.40;99.90
19892;DHT22;10108;50.142;8.724;2022-07-23T01:18:08;21.40;99.90
19892;DHT22;10108;50.142;8.724;2022-07-23T01:20:36;21.40;99.90
19892;DHT22;10108;50.142;8.724;2022-07-23T01:23:02;21.40;99.90
19892;DHT22;10108;50.142;8.724;2022-07-23T01:25:29;21.40;99.90
19892;DHT22;10108;50.142;8.724;2022-07-23T01:28:01;21.40;99.90
19892;DHT22;10108;50.142;8.724;2022-07-23T01:30:28;21.40;99.90
19892;DHT22;10108;50.142;8.724;2022-07-23T01:32:55;21.40;99.90
19892;DHT22;10108;50.142;8.724;2022-07-23T01:35:22;21.40;99.90
19892;DHT22;10108;50.142;8.724;2022-07-23T01:37:50;21.40;99.90
19892;DHT22;10108;50.142;8.724;2022-07-23T01:40:17;21.40;99.90
19892;DHT22;10108;50.142;8.724;2022-07-23T01:42:44;21.40;99.90
19892;DHT22;10108;50.142;8.724;2022-07-23T01:45:11;21.40;99.90
19892;DHT22;10108;50.142;8.724;2022-07-23T01:47:42;21.40;99.90
19892;DHT22;10108;50.142;8.724;2022-07-23T01:50:08;21.40;99.90
19892;DHT22;10108;50.142;8.724;2022-07-23T01:52:48;21.40;99.90
19892;DHT22;10108;50.142;8.724;2022-07-23T01:55:14;21.40;99.90
19892;DHT22;10108;50.142;8.724;2022-07-23T01:57:42;21.40;99.90
19892;DHT22;10108;50.142;8.724;2022-07-23T02:00:11;21.40;99.90
19892;DHT22;10108;50.142;8.724;2022-07-23T02:02:40;21.40;99.90
19892;DHT22;10108;50.142;8.724;2022-07-23T02:05:07;21.40;99.90
19892;DHT22;10108;50.142;8.724;2022-07-23T02:07:34;21.30;99.90
19892;DHT22;10108;50.142;8.724;2022-07-23T02:10:00;21.30;99.90
19892;DHT22;10108;50.142;8.724;2022-07-23T02:12:26;21.20;99.90
19892;DHT22;10108;50.142;8.724;2022-07-23T02:14:52;21.20;99.90
19892;DHT22;10108;50.142;8.724;2022-07-23T02:17:18;21.20;99.90
19892;DHT22;10108;50.142;8.724;2022-07-23T02:19:45;21.20;99.90
19892;DHT22;10108;50.142;8.724;2022-07-23T02:22:11;21.20;99.90
19892;DHT22;10108;50.142;8.724;2022-07-23T02:24:37;21.20;99.90
19892;DHT22;10108;50.142;8.724;2022-07-23T02:27:04;21.30;99.90
19892;DHT22;10108;50.142;8.724;2022-07-23T02:29:31;21.30;99.90
19892;DHT22;10108;50.142;8.724;2022-07-23T02:31:57;21.30;99.90
19892;DHT22;10108;50.142;8.724;2022-07-23T02:34:24;21.30;99.90
19892;DHT22;10108;50.142;8.724;2022-07-23T02:36:50;21.40;99.90
19892;DHT22;10108;50.142;8.724;2022-07-23T02:39:16;21.30;99.90
19892;DHT22;10108;50.142;8.724;2022-07-23T02:41:43;21.30;99.90
19892;DHT22;10108;50.142;8.724;2022-07-23T02:44:09;21.30;99.90
19892;DHT22;10108;50.142;8.724;2022-07-23T02:46:36;21.30;99.90
19892;DHT22;10108;50.142;8.724;2022-07-23T02:49:02;21.30;99.90
19892;DHT22;10108;50.142;8.724;2022-07-23T02:51:31;21.30;99.90
19892;DHT22;10108;50.142;8.724;2022-07-23T02:54:03;21.30;99.90
19892;DHT22;10108;50.142;8.724;2022-07-23T02:56:29;21.30;99.90
19892;DHT22;10108;50.142;8.724;2022-07-23T02:58:57;21.30;99.90
19892;DHT22;10108;50.142;8.724;2022-07-23T03:01:23;21.30;99.90
19892;DHT22;10108;50.142;8.724;2022-07-23T03:03:49;21.30;99.90
19892;DHT22;10108;50.142;8.724;2022-07-23T03:06:15;21.30;99.90
19892;DHT22;10108;50.142;8.724;2022-07-23T03:08:42;21.30;99.90
19892;DHT22;10108;50.142;8.724;2022-07-23T03:11:09;21.30;99.90
19892;DHT22;10108;50.142;8.724;2022-07-23T03:13:39;21.40;99.90
19892;DHT22;10108;50.142;8.724;2022-07-23T03:16:06;21.30;99.90
19892;DHT22;10108;50.142;8.724;2022-07-23T03:18:35;21.30;99.90
19892;DHT22;10108;50.142;8.724;2022-07-23T03:21:01;21.30;99.90
19892;DHT22;10108;50.142;8.724;2022-07-23T03:23:27;21.30;99.90
19892;DHT22;10108;50.142;8.724;2022-07-23T03:25:54;21.20;99.90
19892;DHT22;10108;50.142;8.724;2022-07-23T03:28:20;21.30;99.90
19892;DHT22;10108;50.142;8.724;2022-07-23T03:30:47;21.30;99.90
19892;DHT22;10108;50.142;8.724;2022-07-23T03:33:15;21.30;99.90
19892;DHT22;10108;50.142;8.724;2022-07-23T03:35:44;21.20;99.90
19892;DHT22;10108;50.142;8.724;2022-07-23T03:38:21;21.20;99.90
19892;DHT22;10108;50.142;8.724;2022-07-23T03:40:47;21.20;99.90
19892;DHT22;10108;50.142;8.724;2022-07-23T03:43:13;21.20;99.90
19892;DHT22;10108;50.142;8.724;2022-07-23T03:45:40;21.20;99.90
19892;DHT22;10108;50.142;8.724;2022-07-23T03:48:07;21.20;99.90
19892;DHT22;10108;50.142;8.724;2022-07-23T03:50:33;21.10;99.90
19892;DHT22;10108;50.142;8.724;2022-07-23T03:53:00;21.10;99.90
19892;DHT22;10108;50.142;8.724;2022-07-23T03:55:26;21.10;99.90
19892;DHT22;10108;50.142;8.724;2022-07-23T03:57:53;21.20;99.90
19892;DHT22;10108;50.142;8.724;2022-07-23T04:00:19;21.10;99.90
19892;DHT22;10108;50.142;8.724;2022-07-23T04:02:49;21.10;99.90
19892;DHT22;10108;50.142;8.724;2022-07-23T04:05:16;21.10;99.90
19892;DHT22;10108;50.142;8.724;2022-07-23T04:07:44;21.10;99.90
19892;DHT22;10108;50.142;8.724;2022-07-23T04:10:10;21.10;99.90
19892;DHT22;10108;50.142;8.724;2022-07-23T04:12:36;21.10;99.90
19892;DHT22;10108;50.142;8.724;2022-07-23T04:15:03;21.00;99.90
19892;DHT22;10108;50.142;8.724;2022-07-23T04:17:30;21.00;99.90
19892;DHT22;10108;50.142;8.724;2022-07-23T04:19:56;20.90;99.90
19892;DHT22;10108;50.142;8.724;2022-07-23T04:22:24;20.90;99.90
19892;DHT22;10108;50.142;8.724;2022-07-23T04:24:50;21.00;99.90
19892;DHT22;10108;50.142;8.724;2022-07-23T04:27:17;20.90;99.90
19892;DHT22;10108;50.142;8.724;2022-07-23T04:29:43;21.00;99.90
19892;DHT22;10108;50.142;8.724;2022-07-23T04:32:09;20.90;99.90
19892;DHT22;10108;50.142;8.724;2022-07-23T04:34:36;20.90;99.90
19892;DHT22;10108;50.142;8.724;2022-07-23T04:37:02;20.90;99.90
19892;DHT22;10108;50.142;8.724;2022-07-23T04:39:31;20.90;99.90
19892;DHT22;10108;50.142;8.724;2022-07-23T04:41:58;20.90;99.90
19892;DHT22;10108;50.142;8.724;2022-07-23T04:44:24;20.90;99.90
19892;DHT22;10108;50.142;8.724;2022-07-23T04:46:51;20.80;99.90
19892;DHT22;10108;50.142;8.724;2022-07-23T04:49:17;20.80;99.90
19892;DHT22;10108;50.142;8.724;2022-07-23T04:51:43;20.80;99.90
19892;DHT22;10108;50.142;8.724;2022-07-23T04:54:10;20.80;99.90
19892;DHT22;10108;50.142;8.724;2022-07-23T04:56:36;20.80;99.90
19892;DHT22;10108;50.142;8.724;2022-07-23T04:59:02;20.80;99.90
19892;DHT22;10108;50.142;8.724;2022-07-23T05:01:28;20.80;99.90
19892;DHT22;10108;50.142;8.724;2022-07-23T05:03:54;20.90;99.90
19892;DHT22;10108;50.142;8.724;2022-07-23T05:06:21;20.90;99.90
19892;DHT22;10108;50.142;8.724;2022-07-23T05:08:47;20.90;99.90
19892;DHT22;10108;50.142;8.724;2022-07-23T05:11:13;20.90;99.90
19892;DHT22;10108;50.142;8.724;2022-07-23T05:13:40;21.00;99.90
19892;DHT22;10108;50.142;8.724;2022-07-23T05:16:07;21.00;99.90
19892;DHT22;10108;50.142;8.724;2022-07-23T05:18:34;21.00;99.90
19892;DHT22;10108;50.142;8.724;2022-07-23T05:21:00;21.00;99.90
19892;DHT22;10108;50.142;8.724;2022-07-23T05:23:26;21.00;99.90
19892;DHT22;10108;50.142;8.724;2022-07-23T05:25:52;21.00;99.90
19892;DHT22;10108;50.142;8.724;2022-07-23T05:28:19;21.10;99.90
19892;DHT22;10108;50.142;8.724;2022-07-23T05:30:45;21.00;99.90
19892;DHT22;10108;50.142;8.724;2022-07-23T05:33:14;21.10;99.90
19892;DHT22;10108;50.142;8.724;2022-07-23T05:35:41;21.10;99.90
19892;DHT22;10108;50.142;8.724;2022-07-23T05:38:17;21.10;99.90
19892;DHT22;10108;50.142;8.724;2022-07-23T05:40:44;21.10;99.90
19892;DHT22;10108;50.142;8.724;2022-07-23T05:43:10;21.00;99.90
19892;DHT22;10108;50.142;8.724;2022-07-23T05:45:37;21.00;99.90
19892;DHT22;10108;50.142;8.724;2022-07-23T05:48:03;21.00;99.90
19892;DHT22;10108;50.142;8.724;2022-07-23T05:50:35;21.00;99.90
19892;DHT22;10108;50.142;8.724;2022-07-23T05:53:13;21.00;99.90
19892;DHT22;10108;50.142;8.724;2022-07-23T05:55:58;20.90;99.90
19892;DHT22;10108;50.142;8.724;2022-07-23T05:58:24;20.90;99.90
19892;DHT22;10108;50.142;8.724;2022-07-23T06:00:51;20.90;99.90
19892;DHT22;10108;50.142;8.724;2022-07-23T06:03:17;20.90;99.90
19892;DHT22;10108;50.142;8.724;2022-07-23T06:05:44;20.90;99.90
19892;DHT22;10108;50.142;8.724;2022-07-23T06:08:10;21.00;99.90
19892;DHT22;10108;50.142;8.724;2022-07-23T06:10:37;21.00;99.90
19892;DHT22;10108;50.142;8.724;2022-07-23T06:13:04;21.00;99.90
19892;DHT22;10108;50.142;8.724;2022-07-23T06:15:30;21.10;99.90
19892;DHT22;10108;50.142;8.724;2022-07-23T06:17:57;21.10;99.90
19892;DHT22;10108;50.142;8.724;2022-07-23T06:20:24;21.10;99.90
19892;DHT22;10108;50.142;8.724;2022-07-23T06:22:50;21.10;99.90
19892;DHT22;10108;50.142;8.724;2022-07-23T06:25:17;21.00;99.90
19892;DHT22;10108;50.142;8.724;2022-07-23T06:27:43;21.00;99.90
19892;DHT22;10108;50.142;8.724;2022-07-23T06:30:12;21.00;99.90
19892;DHT22;10108;50.142;8.724;2022-07-23T06:32:38;21.10;99.90
19892;DHT22;10108;50.142;8.724;2022-07-23T06:35:05;21.10;99.90
19892;DHT22;10108;50.142;8.724;2022-07-23T06:37:31;21.10;99.90
19892;DHT22;10108;50.142;8.724;2022-07-23T06:39:57;21.20;99.90
19892;DHT22;10108;50.142;8.724;2022-07-23T06:42:23;21.20;99.90
19892;DHT22;10108;50.142;8.724;2022-07-23T06:44:56;21.30;99.90
19892;DHT22;10108;50.142;8.724;2022-07-23T06:47:23;21.30;99.90
19892;DHT22;10108;50.142;8.724;2022-07-23T06:49:49;21.30;99.90
19892;DHT22;10108;50.142;8.724;2022-07-23T06:52:16;21.40;99.90
19892;DHT22;10108;50.142;8.724;2022-07-23T06:54:43;21.40;99.90
19892;DHT22;10108;50.142;8.724;2022-07-23T06:57:09;21.40;99.90
19892;DHT22;10108;50.142;8.724;2022-07-23T06:59:35;21.50;99.90
19892;DHT22;10108;50.142;8.724;2022-07-23T07:02:07;21.50;99.90
19892;DHT22;10108;50.142;8.724;2022-07-23T07:04:33;21.60;99.90
19892;DHT22;10108;50.142;8.724;2022-07-23T07:07:00;21.60;99.90
19892;DHT22;10108;50.142;8.724;2022-07-23T07:09:26;21.60;99.90
19892;DHT22;10108;50.142;8.724;2022-07-23T07:11:52;21.60;99.90
19892;DHT22;10108;50.142;8.724;2022-07-23T07:14:18;21.70;99.90
19892;DHT22;10108;50.142;8.724;2022-07-23T07:16:44;21.70;99.90
19892;DHT22;10108;50.142;8.724;2022-07-23T07:19:11;21.80;99.90
19892;DHT22;10108;50.142;8.724;2022-07-23T07:21:37;21.80;99.90
19892;DHT22;10108;50.142;8.724;2022-07-23T07:24:03;21.80;99.90
19892;DHT22;10108;50.142;8.724;2022-07-23T07:26:30;21.90;99.90
19892;DHT22;10108;50.142;8.724;2022-07-23T07:28:57;21.90;99.90
19892;DHT22;10108;50.142;8.724;2022-07-23T07:31:23;21.90;99.90
19892;DHT22;10108;50.142;8.724;2022-07-23T07:33:49;22.00;99.90
19892;DHT22;10108;50.142;8.724;2022-07-23T07:36:16;22.00;99.90
19892;DHT22;10108;50.142;8.724;2022-07-23T07:38:42;22.00;99.90
19892;DHT22;10108;50.142;8.724;2022-07-23T07:41:08;22.10;99.90
19892;DHT22;10108;50.142;8.724;2022-07-23T07:43:36;22.10;99.90
19892;DHT22;10108;50.142;8.724;2022-07-23T07:46:03;22.10;99.90
19892;DHT22;10108;50.142;8.724;2022-07-23T07:48:29;22.10;99.90
19892;DHT22;10108;50.142;8.724;2022-07-23T07:50:56;22.10;99.90
19892;DHT22;10108;50.142;8.724;2022-07-23T07:53:22;22.10;99.90
19892;DHT22;10108;50.142;8.724;2022-07-23T07:55:48;22.10;99.90
19892;DHT22;10108;50.142;8.724;2022-07-23T07:58:14;22.10;99.90
19892;DHT22;10108;50.142;8.724;2022-07-23T08:00:40;22.20;99.90
19892;DHT22;10108;50.142;8.724;2022-07-23T08:03:06;22.20;99.90
19892;DHT22;10108;50.142;8.724;2022-07-23T08:05:33;22.20;99.90
19892;DHT22;10108;50.142;8.724;2022-07-23T08:07:59;22.20;99.90
19892;DHT22;10108;50.142;8.724;2022-07-23T08:10:27;22.30;99.90
19892;DHT22;10108;50.142;8.724;2022-07-23T08:12:56;22.30;99.90
19892;DHT22;10108;50.142;8.724;2022-07-23T08:15:24;22.30;99.90
19892;DHT22;10108;50.142;8.724;2022-07-23T08:17:50;22.30;99.90
19892;DHT22;10108;50.142;8.724;2022-07-23T08:20:19;22.30;99.90
19892;DHT22;10108;50.142;8.724;2022-07-23T08:23:04;22.40;99.90
19892;DHT22;10108;50.142;8.724;2022-07-23T08:25:48;22.40;99.90
19892;DHT22;10108;50.142;8.724;2022-07-23T08:28:15;22.50;99.90
19892;DHT22;10108;50.142;8.724;2022-07-23T08:30:42;22.60;99.90
19892;DHT22;10108;50.142;8.724;2022-07-23T08:33:11;22.60;99.90
19892;DHT22;10108;50.142;8.724;2022-07-23T08:35:41;22.70;99.90
19892;DHT22;10108;50.142;8.724;2022-07-23T08:38:09;22.70;99.90
19892;DHT22;10108;50.142;8.724;2022-07-23T08:40:38;22.70;99.90
19892;DHT22;10108;50.142;8.724;2022-07-23T08:43:06;22.80;99.90
19892;DHT22;10108;50.142;8.724;2022-07-23T08:45:37;22.80;99.90
19892;DHT22;10108;50.142;8.724;2022-07-23T08:48:08;22.80;99.90
19892;DHT22;10108;50.142;8.724;2022-07-23T08:50:35;22.80;99.90
19892;DHT22;10108;50.142;8.724;2022-07-23T08:53:05;22.80;99.90
19892;DHT22;10108;50.142;8.724;2022-07-23T08:55:31;22.80;99.90
19892;DHT22;10108;50.142;8.724;2022-07-23T08:57:57;22.80;99.90
19892;DHT22;10108;50.142;8.724;2022-07-23T09:00:23;22.80;99.90
19892;DHT22;10108;50.142;8.724;2022-07-23T09:02:50;22.70;99.90
19892;DHT22;10108;50.142;8.724;2022-07-23T09:05:17;22.80;99.90
19892;DHT22;10108;50.142;8.724;2022-07-23T09:10:28;22.80;99.90
19892;DHT22;10108;50.142;8.724;2022-07-23T09:12:55;22.80;99.90
19892;DHT22;10108;50.142;8.724;2022-07-23T09:15:21;22.80;99.90
19892;DHT22;10108;50.142;8.724;2022-07-23T09:17:47;22.90;99.90
19892;DHT22;10108;50.142;8.724;2022-07-23T09:20:16;22.90;99.90
19892;DHT22;10108;50.142;8.724;2022-07-23T09:22:46;22.90;99.90
19892;DHT22;10108;50.142;8.724;2022-07-23T09:25:15;23.00;99.90
19892;DHT22;10108;50.142;8.724;2022-07-23T09:30:27;23.20;99.90
19892;DHT22;10108;50.142;8.724;2022-07-23T09:33:13;23.30;99.90
19892;DHT22;10108;50.142;8.724;2022-07-23T09:35:54;23.40;99.90
19892;DHT22;10108;50.142;8.724;2022-07-23T09:38:23;23.50;99.90
19892;DHT22;10108;50.142;8.724;2022-07-23T09:41:09;23.50;99.90
19892;DHT22;10108;50.142;8.724;2022-07-23T09:43:35;23.50;99.90
19892;DHT22;10108;50.142;8.724;2022-07-23T09:46:22;23.50;99.90
19892;DHT22;10108;50.142;8.724;2022-07-23T09:48:52;23.50;99.90
19892;DHT22;10108;50.142;8.724;2022-07-23T09:51:19;23.50;99.90
19892;DHT22;10108;50.142;8.724;2022-07-23T09:53:58;23.40;99.90
19892;DHT22;10108;50.142;8.724;2022-07-23T09:56:27;23.40;99.90
19892;DHT22;10108;50.142;8.724;2022-07-23T09:58:54;23.40;99.90
19892;DHT22;10108;50.142;8.724;2022-07-23T10:01:38;23.40;99.90
19892;DHT22;10108;50.142;8.724;2022-07-23T10:04:05;23.50;99.90
19892;DHT22;10108;50.142;8.724;2022-07-23T10:06:58;23.50;99.90
19892;DHT22;10108;50.142;8.724;2022-07-23T10:09:47;23.50;99.90
19892;DHT22;10108;50.142;8.724;2022-07-23T10:12:35;23.50;99.90
19892;DHT22;10108;50.142;8.724;2022-07-23T10:15:18;23.50;99.90
19892;DHT22;10108;50.142;8.724;2022-07-23T10:17:44;23.60;99.70
19892;DHT22;10108;50.142;8.724;2022-07-23T10:20:10;23.60;98.80
19892;DHT22;10108;50.142;8.724;2022-07-23T10:25:41;23.60;99.50
19892;DHT22;10108;50.142;8.724;2022-07-23T10:28:38;23.60;99.60
19892;DHT22;10108;50.142;8.724;2022-07-23T10:34:25;23.60;99.80
19892;DHT22;10108;50.142;8.724;2022-07-23T10:37:12;23.60;99.30
19892;DHT22;10108;50.142;8.724;2022-07-23T10:39:42;23.60;99.90
19892;DHT22;10108;50.142;8.724;2022-07-23T10:42:09;23.60;99.90
19892;DHT22;10108;50.142;8.724;2022-07-23T10:44:44;23.60;99.90
19892;DHT22;10108;50.142;8.724;2022-07-23T10:47:12;23.50;99.90
19892;DHT22;10108;50.142;8.724;2022-07-23T10:49:41;23.50;99.80
19892;DHT22;10108;50.142;8.724;2022-07-23T10:52:42;23.50;99.90
19892;DHT22;10108;50.142;8.724;2022-07-23T10:57:55;23.40;99.80
19892;DHT22;10108;50.142;8.724;2022-07-23T11:00:22;23.40;99.60
19892;DHT22;10108;50.142;8.724;2022-07-23T11:02:53;23.40;99.50
19892;DHT22;10108;50.142;8.724;2022-07-23T11:05:25;23.40;99.30
19892;DHT22;10108;50.142;8.724;2022-07-23T11:10:33;23.50;99.80
19892;DHT22;10108;50.142;8.724;2022-07-23T11:26:46;23.50;98.20
19892;DHT22;10108;50.142;8.724;2022-07-23T11:31:55;23.50;97.90
19892;DHT22;10108;50.142;8.724;2022-07-23T11:37:05;23.60;97.80
19892;DHT22;10108;50.142;8.724;2022-07-23T11:39:32;23.60;98.40
19892;DHT22;10108;50.142;8.724;2022-07-23T11:42:00;23.60;98.30
19892;DHT22;10108;50.142;8.724;2022-07-23T11:44:39;23.60;98.80
19892;DHT22;10108;50.142;8.724;2022-07-23T11:47:09;23.70;98.70
19892;DHT22;10108;50.142;8.724;2022-07-23T11:49:37;23.60;97.40
19892;DHT22;10108;50.142;8.724;2022-07-23T11:52:14;23.70;96.90
19892;DHT22;10108;50.142;8.724;2022-07-23T11:54:59;23.70;96.60
19892;DHT22;10108;50.142;8.724;2022-07-23T11:57:38;23.70;95.80
19892;DHT22;10108;50.142;8.724;2022-07-23T12:00:16;23.70;96.60
19892;DHT22;10108;50.142;8.724;2022-07-23T12:02:48;23.70;98.90
19892;DHT22;10108;50.142;8.724;2022-07-23T12:05:17;23.80;99.80
19892;DHT22;10108;50.142;8.724;2022-07-23T12:07:44;23.80;98.50
19892;DHT22;10108;50.142;8.724;2022-07-23T12:10:25;23.80;97.50
19892;DHT22;10108;50.142;8.724;2022-07-23T12:12:58;23.80;98.60
19892;DHT22;10108;50.142;8.724;2022-07-23T12:15:25;23.80;98.20
19892;DHT22;10108;50.142;8.724;2022-07-23T12:17:53;23.80;98.10
19892;DHT22;10108;50.142;8.724;2022-07-23T12:20:26;23.80;97.70
19892;DHT22;10108;50.142;8.724;2022-07-23T12:23:01;23.80;97.00
19892;DHT22;10108;50.142;8.724;2022-07-23T12:25:35;23.90;96.70
19892;DHT22;10108;50.142;8.724;2022-07-23T12:28:13;23.90;96.70
19892;DHT22;10108;50.142;8.724;2022-07-23T12:30:44;23.90;97.00
19892;DHT22;10108;50.142;8.724;2022-07-23T12:33:12;23.90;97.00
19892;DHT22;10108;50.142;8.724;2022-07-23T12:35:44;23.90;97.00
19892;DHT22;10108;50.142;8.724;2022-07-23T12:38:21;24.10;98.10
19892;DHT22;10108;50.142;8.724;2022-07-23T12:41:07;24.10;98.90
19892;DHT22;10108;50.142;8.724;2022-07-23T12:43:36;24.10;97.60
19892;DHT22;10108;50.142;8.724;2022-07-23T12:46:04;24.10;96.80
19892;DHT22;10108;50.142;8.724;2022-07-23T12:48:32;24.20;96.00
19892;DHT22;10108;50.142;8.724;2022-07-23T12:51:07;24.30;98.20
19892;DHT22;10108;50.142;8.724;2022-07-23T12:53:47;24.30;98.60
19892;DHT22;10108;50.142;8.724;2022-07-23T12:56:19;24.40;96.90
19892;DHT22;10108;50.142;8.724;2022-07-23T13:01:30;24.40;95.10
19892;DHT22;10108;50.142;8.724;2022-07-23T13:06:30;24.40;95.30
19892;DHT22;10108;50.142;8.724;2022-07-23T13:08:56;24.50;95.10
19892;DHT22;10108;50.142;8.724;2022-07-23T13:11:23;24.50;95.60
19892;DHT22;10108;50.142;8.724;2022-07-23T13:13:49;24.50;96.80
19892;DHT22;10108;50.142;8.724;2022-07-23T13:16:16;24.60;95.00
19892;DHT22;10108;50.142;8.724;2022-07-23T13:18:42;24.60;96.80
19892;DHT22;10108;50.142;8.724;2022-07-23T13:21:09;24.60;98.20
19892;DHT22;10108;50.142;8.724;2022-07-23T13:23:35;24.60;98.40
19892;DHT22;10108;50.142;8.724;2022-07-23T13:26:02;24.60;98.00
19892;DHT22;10108;50.142;8.724;2022-07-23T13:28:29;24.60;98.50
19892;DHT22;10108;50.142;8.724;2022-07-23T13:30:55;24.60;96.70
19892;DHT22;10108;50.142;8.724;2022-07-23T13:33:23;24.50;95.80
19892;DHT22;10108;50.142;8.724;2022-07-23T13:35:51;24.50;95.20
19892;DHT22;10108;50.142;8.724;2022-07-23T13:38:19;24.50;94.50
19892;DHT22;10108;50.142;8.724;2022-07-23T13:40:48;24.50;95.30
19892;DHT22;10108;50.142;8.724;2022-07-23T13:43:18;24.50;95.20
19892;DHT22;10108;50.142;8.724;2022-07-23T13:45:44;24.50;95.70
19892;DHT22;10108;50.142;8.724;2022-07-23T13:48:13;24.60;95.30
19892;DHT22;10108;50.142;8.724;2022-07-23T13:50:40;24.70;97.40
19892;DHT22;10108;50.142;8.724;2022-07-23T13:53:09;24.70;95.50
19892;DHT22;10108;50.142;8.724;2022-07-23T13:55:35;24.70;99.90
19892;DHT22;10108;50.142;8.724;2022-07-23T13:58:03;24.60;99.90
19892;DHT22;10108;50.142;8.724;2022-07-23T14:00:32;24.60;99.90
19892;DHT22;10108;50.142;8.724;2022-07-23T14:03:00;24.50;99.90
19892;DHT22;10108;50.142;8.724;2022-07-23T14:05:27;24.40;99.90
19892;DHT22;10108;50.142;8.724;2022-07-23T14:07:54;24.40;98.70
19892;DHT22;10108;50.142;8.724;2022-07-23T14:10:22;24.40;99.50
19892;DHT22;10108;50.142;8.724;2022-07-23T14:12:50;24.40;98.70
19892;DHT22;10108;50.142;8.724;2022-07-23T14:15:17;24.50;99.90
19892;DHT22;10108;50.142;8.724;2022-07-23T14:17:44;24.50;99.90
19892;DHT22;10108;50.142;8.724;2022-07-23T14:20:13;24.50;97.60
19892;DHT22;10108;50.142;8.724;2022-07-23T14:22:40;24.60;98.90
19892;DHT22;10108;50.142;8.724;2022-07-23T14:25:07;24.70;97.80
19892;DHT22;10108;50.142;8.724;2022-07-23T14:27:34;24.70;97.30
19892;DHT22;10108;50.142;8.724;2022-07-23T14:30:00;24.70;98.20
19892;DHT22;10108;50.142;8.724;2022-07-23T14:32:27;24.70;98.20
19892;DHT22;10108;50.142;8.724;2022-07-23T14:34:53;24.80;99.40
19892;DHT22;10108;50.142;8.724;2022-07-23T14:37:19;24.80;98.90
19892;DHT22;10108;50.142;8.724;2022-07-23T14:39:46;24.90;99.90
19892;DHT22;10108;50.142;8.724;2022-07-23T14:42:13;25.00;98.90
19892;DHT22;10108;50.142;8.724;2022-07-23T14:44:39;25.00;98.50
19892;DHT22;10108;50.142;8.724;2022-07-23T14:47:06;24.90;99.90
19892;DHT22;10108;50.142;8.724;2022-07-23T14:49:33;24.90;99.90
19892;DHT22;10108;50.142;8.724;2022-07-23T14:51:59;24.90;96.40
19892;DHT22;10108;50.142;8.724;2022-07-23T14:54:27;24.90;96.40
19892;DHT22;10108;50.142;8.724;2022-07-23T14:56:54;25.00;97.40
19892;DHT22;10108;50.142;8.724;2022-07-23T14:59:21;24.90;98.70
19892;DHT22;10108;50.142;8.724;2022-07-23T15:01:47;24.90;97.40
19892;DHT22;10108;50.142;8.724;2022-07-23T15:04:14;24.90;95.60
19892;DHT22;10108;50.142;8.724;2022-07-23T15:06:40;24.90;99.40
19892;DHT22;10108;50.142;8.724;2022-07-23T15:09:07;24.80;98.70
19892;DHT22;10108;50.142;8.724;2022-07-23T15:11:33;24.80;97.80
19892;DHT22;10108;50.142;8.724;2022-07-23T15:14:00;24.70;97.00
19892;DHT22;10108;50.142;8.724;2022-07-23T15:16:27;24.70;96.50
19892;DHT22;10108;50.142;8.724;2022-07-23T15:18:55;24.70;96.00
19892;DHT22;10108;50.142;8.724;2022-07-23T15:21:21;24.70;95.40
19892;DHT22;10108;50.142;8.724;2022-07-23T15:23:48;24.70;94.70
19892;DHT22;10108;50.142;8.724;2022-07-23T15:26:14;24.60;95.80
19892;DHT22;10108;50.142;8.724;2022-07-23T15:28:41;24.60;96.60
19892;DHT22;10108;50.142;8.724;2022-07-23T15:31:07;24.60;95.90
19892;DHT22;10108;50.142;8.724;2022-07-23T15:33:34;24.50;95.30
19892;DHT22;10108;50.142;8.724;2022-07-23T15:36:01;24.50;95.50
19892;DHT22;10108;50.142;8.724;2022-07-23T15:38:27;24.50;95.90
19892;DHT22;10108;50.142;8.724;2022-07-23T15:40:56;24.40;96.20
19892;DHT22;10108;50.142;8.724;2022-07-23T15:43:24;24.40;96.80
19892;DHT22;10108;50.142;8.724;2022-07-23T15:45:51;24.40;96.00
19892;DHT22;10108;50.142;8.724;2022-07-23T15:48:19;24.40;94.40
19892;DHT22;10108;50.142;8.724;2022-07-23T15:50:46;24.50;93.40
19892;DHT22;10108;50.142;8.724;2022-07-23T15:53:13;24.50;92.90
19892;DHT22;10108;50.142;8.724;2022-07-23T15:55:40;24.60;92.00
19892;DHT22;10108;50.142;8.724;2022-07-23T15:58:07;24.70;92.00
19892;DHT22;10108;50.142;8.724;2022-07-23T16:00:33;24.70;92.00
19892;DHT22;10108;50.142;8.724;2022-07-23T16:02:59;24.70;92.70
19892;DHT22;10108;50.142;8.724;2022-07-23T16:05:26;24.70;93.30
19892;DHT22;10108;50.142;8.724;2022-07-23T16:07:52;24.70;93.40
19892;DHT22;10108;50.142;8.724;2022-07-23T16:10:18;24.70;93.60
19892;DHT22;10108;50.142;8.724;2022-07-23T16:12:44;24.70;94.60
19892;DHT22;10108;50.142;8.724;2022-07-23T16:15:10;24.70;94.20
19892;DHT22;10108;50.142;8.724;2022-07-23T16:17:37;24.80;93.30
19892;DHT22;10108;50.142;8.724;2022-07-23T16:20:04;24.80;94.00